ADDS METAR Data INFO
IDs: Format: Raw Decoded Include TAF

Data at: 1546 UTC 24 Sep 2017

KBEA 241535Z AUTO 13008KT 10SM SCT020 BKN027 BKN032 30/19 A2987 RMK AO2 T03000194
KBEA 241515Z AUTO 13007KT 10SM BKN016 BKN024 BKN033 30/20 A2987 RMK AO2 T03010197
KBEA 241455Z AUTO 12007KT 10SM SCT016 SCT080 30/21 A2987 RMK AO2 T02950208
KBEA 241435Z AUTO 13007KT 10SM SCT028 SCT080 29/21 A2986 RMK AO2 T02870212
KBEA 241415Z AUTO 13006KT 10SM SCT020 BKN028 27/24 A2986 RMK AO2 T02720243
KBEA 241355Z AUTO 00000KT 10SM BKN022 BKN032 BKN050 23/23 A2985 RMK AO2 T02330231
KBEA 241335Z AUTO 09004KT 7SM SCT026 SCT070 A2985 RMK AO2
KBEA 241315Z AUTO 00000KT 3SM BR SCT020 21/21 A2985 RMK AO2 T02120212
KBEA 241255Z AUTO 06003KT 2SM BR BKN020 21/21 A2985 RMK AO2 T02070207
KBEA 241235Z AUTO 07004KT 2 1/2SM BR CLR 21/21 A2984 RMK AO2 T02070207
KBEA 241215Z AUTO 06004KT 2 1/2SM BR CLR 21/21 A2984 RMK AO2 T02050205
KBEA 241155Z AUTO 07004KT 4SM BR CLR 21/21 A2984 RMK AO2 T02050205
KBEA 241135Z AUTO 00000KT 4SM BR SCT024 21/21 A2984 RMK AO2 T02080208
KBEA 241115Z AUTO 06004KT 4SM BR CLR 21/21 A2983 RMK AO2 T02090209
KBEA 241055Z AUTO 07004KT 5SM BR SCT019 SCT027 SCT033 A2983 RMK AO2
KBEA 241035Z AUTO 09003KT 5SM BR SCT019 BKN024 BKN030 21/21 A2983 RMK AO2 T02130213
KBEA 241015Z AUTO 06004KT 4SM BR SCT021 SCT028 21/21 A2983 RMK AO2 T02100210
KBEA 240955Z AUTO 07004KT 5SM BR SCT019 SCT025 21/21 A2983 RMK AO2 T02120212
KBEA 240935Z AUTO 07003KT 4SM HZ CLR A2983 RMK AO2
KBEA 240915Z AUTO 07003KT 5SM HZ CLR A2984 RMK AO2
KBEA 240855Z AUTO 07004KT 7SM CLR A2984 RMK AO2
KBEA 240835Z AUTO 07004KT 7SM CLR A2984 RMK AO2
KBEA 240815Z AUTO 08004KT 7SM CLR A2985 RMK AO2
KBEA 240755Z AUTO 07004KT 5SM HZ CLR A2985 RMK AO2
KBEA 240735Z AUTO 08004KT 7SM SCT025 SCT031 A2985 RMK AO2
KBEA 240715Z AUTO 08004KT 7SM SCT025 SCT031 A2985 RMK AO2
KBEA 240655Z AUTO 09003KT 7SM CLR 23/23 A2985 RMK AO2 LTG DSNT W T02310231
KBEA 240635Z AUTO 06004KT 5SM BR CLR 23/23 A2985 RMK AO2 T02300230
KBEA 240615Z AUTO 00000KT 5SM HZ CLR A2986 RMK AO2
KBEA 240555Z AUTO 08003KT 7SM CLR A2986 RMK AO2
KBEA 240535Z AUTO 10003KT 10SM CLR A2986 RMK AO2
KBEA 240515Z AUTO 00000KT 10SM CLR 24/24 A2986 RMK AO2 T02380238
KBEA 240455Z AUTO 00000KT 10SM CLR 24/24 A2986 RMK AO2 T02410241
KBEA 240435Z AUTO 10004KT 10SM CLR 24/24 A2985 RMK AO2 T02420242
KBEA 240415Z AUTO 10004KT 10SM CLR 25/25 A2985 RMK AO2 T02450245
KBEA 240355Z AUTO 10005KT 10SM CLR 25/25 A2985 RMK AO2 T02450245
KBEA 240335Z AUTO 09004KT 10SM CLR 25/25 A2985 RMK AO2 T02460246
KBEA 240315Z AUTO 10003KT 10SM CLR 25/25 A2985 RMK AO2 T02500250
KBEA 240255Z AUTO 10005KT 10SM CLR 26/23 A2985 RMK AO2 T02560228
KBEA 240235Z AUTO 11006KT 10SM CLR 26/20 A2985 RMK AO2 T02590203
KBEA 240215Z AUTO 11007KT 10SM CLR 26/20 A2985 RMK AO2 T02620200
KBEA 240155Z AUTO 12008KT 10SM CLR 27/20 A2984 RMK AO2 T02660198
KBEA 240135Z AUTO 11007G14KT 10SM CLR 27/20 A2983 RMK AO2 T02700197
KBEA 240115Z AUTO 11009KT 10SM CLR 27/19 A2983 RMK AO2 T02720194
KBEA 240055Z AUTO 12008G14KT 10SM CLR 28/19 A2982 RMK AO2 T02750189
KBEA 240035Z AUTO 12012G19KT 10SM CLR 28/19 A2982 RMK AO2 T02810185
KBEA 240015Z AUTO 12010G18KT 10SM CLR 29/19 A2982 RMK AO2 T02870185
KBEA 232355Z AUTO 11012G17KT 10SM CLR 30/18 A2982 RMK AO2 T02950180 10347 20295
KBEA 232335Z AUTO 12013G19KT 10SM SCT033 SCT039 30/18 A2983 RMK AO2 T02980177
KBEA 232315Z AUTO 12012G20KT 10SM SCT033 SCT039 SCT047 31/18 A2982 RMK AO2 T03070175
KBEA 232255Z AUTO 13013G20KT 10SM SCT040 SCT047 SCT055 32/17 A2982 RMK AO2 T03150169
KBEA 232235Z AUTO 12014G18KT 10SM SCT044 SCT055 32/16 A2982 RMK AO2 T03230156
KBEA 232215Z AUTO 12012G17KT 10SM CLR 32/16 A2982 RMK AO2 T03240157
KBEA 232155Z AUTO 14010G18KT 10SM CLR 32/16 A2982 RMK AO2 LTG DSNT W T03210162
KBEA 232135Z AUTO 11013G16KT 10SM SCT042 SCT050 32/16 A2982 RMK AO2 T03170159
KBEA 232115Z AUTO 12010G17KT 10SM SCT042 SCT050 33/16 A2982 RMK AO2 T03320160
KBEA 232055Z AUTO 12013G18KT 10SM SCT040 SCT046 SCT050 33/17 A2982 RMK AO2 T03270166
KBEA 232035Z AUTO 11012G21KT 10SM SCT041 SCT050 SCT070 33/17 A2983 RMK AO2 T03290166
KBEA 232015Z AUTO 13013G20KT 10SM SCT043 BKN048 BKN050 33/17 A2984 RMK AO2 T03250168
KBEA 231955Z AUTO 13010G16KT 10SM SCT043 SCT049 BKN065 34/14 A2984 RMK AO2 T03430143
KBEA 231935Z AUTO 12010KT 10SM SCT041 SCT046 SCT065 33/16 A2985 RMK AO2 T03270156
KBEA 231915Z AUTO 12011G17KT 10SM SCT041 SCT055 33/16 A2985 RMK AO2 T03340162
KBEA 231855Z AUTO 12015KT 10SM SCT039 SCT049 BKN060 33/16 A2986 RMK AO2 T03330162
KBEA 231835Z AUTO 10011G18KT 10SM SCT039 BKN047 OVC060 32/17 A2987 RMK AO2 T03200172
KBEA 231815Z AUTO 07007KT 10SM SCT038 BKN048 OVC070 31/19 A2988 RMK AO2 T03100186
KBEA 231755Z AUTO 11008KT 070V130 10SM SCT036 BKN047 BKN055 31/19 A2988 RMK AO2 T03060190 10319 20205
KBEA 231735Z AUTO 08007G14KT 10SM SCT030 SCT039 BKN047 29/17 A2989 RMK AO2 T02930171
KBEA 231715Z AUTO 09006KT 10SM SCT032 BKN038 BKN047 30/19 A2990 RMK AO2 T03040188
KBEA 231655Z AUTO 12006KT 10SM BKN031 BKN038 BKN055 32/18 A2990 RMK AO2 T03170182
KBEA 231635Z AUTO 11009KT 10SM SCT026 SCT035 BKN043 31/19 A2990 RMK AO2 T03120191
KBEA 231615Z AUTO 15007KT 10SM SCT021 SCT033 BKN042 31/19 A2991 RMK AO2 T03110194
KBEA 231555Z AUTO 12007KT 10SM CLR 31/20 A2991 RMK AO2 T03060200
KBEA 231535Z AUTO 11005KT 10SM CLR 29/25 A2991 RMK AO2 T02870246
KBEA 231515Z AUTO 09007KT 10SM SCT017 SCT048 SCT060 29/22 A2991 RMK AO2 T02900217
KBEA 231455Z AUTO 11006KT 10SM SCT019 SCT060 28/26 A2990 RMK AO2 T02750258
KBEA 231435Z AUTO 10004KT 10SM CLR 28/24 A2991 RMK AO2 T02820238
KBEA 231415Z AUTO 08005KT 10SM CLR 27/24 A2990 RMK AO2 T02710242
KBEA 231355Z AUTO 10004KT 10SM SCT023 SCT030 SCT036 26/26 A2990 RMK AO2 T02600256
KBEA 231335Z AUTO 08003KT 10SM SCT031 SCT044 BKN050 23/23 A2990 RMK AO2 T02280227
KBEA 231315Z AUTO 08003KT 10SM SCT021 SCT038 A2990 RMK AO2
KBEA 231255Z AUTO 00000KT 7SM SCT019 BKN025 BKN037 22/22 A2990 RMK AO2 T02150215
KBEA 231235Z AUTO 05004KT 4SM BR SCT024 SCT036 21/21 A2990 RMK AO2 T02070207
KBEA 231215Z AUTO 06005KT 5SM BR SCT027 21/21 A2989 RMK AO2 T02060206
KBEA 231155Z AUTO 06003KT 5SM BR SCT027 21/21 A2989 RMK AO2 T02070207
KBEA 231135Z AUTO 07004KT 5SM BR SCT020 SCT025 21/21 A2988 RMK AO2 T02110211
KBEA 231115Z AUTO 07003KT 5SM BR SCT020 BKN024 BKN031 21/21 A2988 RMK AO2 T02100210
KBEA 231055Z AUTO 07003KT 5SM BR BKN022 OVC026 21/21 A2988 RMK AO2 T02110211
KBEA 231035Z AUTO 07004KT 5SM BR SCT022 21/21 A2988 RMK AO2 T02100210
KBEA 231015Z AUTO 07004KT 5SM BR CLR 21/21 A2988 RMK AO2 T02100210
KBEA 230955Z AUTO 07004KT 7SM CLR A2988 RMK AO2
KBEA 230935Z AUTO 08004KT 7SM CLR A2988 RMK AO2
KBEA 230915Z AUTO 08004KT 7SM CLR A2988 RMK AO2
KBEA 230855Z AUTO 08004KT 7SM SCT025 A2988 RMK AO2
KBEA 230835Z AUTO 07003KT 10SM SCT023 A2988 RMK AO2
KBEA 230815Z AUTO 08003KT 10SM SCT022 A2988 RMK AO2
KBEA 230755Z AUTO 09003KT 7SM SCT022 A2989 RMK AO2
KBEA 230735Z AUTO 08004KT 10SM CLR A2989 RMK AO2
KBEA 230715Z AUTO 08003KT 10SM SCT020 A2990 RMK AO2
KBEA 230655Z AUTO 10003KT 10SM SCT019 A2990 RMK AO2
KBEA 230635Z AUTO 10003KT 10SM CLR A2990 RMK AO2
KBEA 230615Z AUTO 10004KT 10SM SCT019 24/24 A2990 RMK AO2 T02380238
KBEA 230555Z AUTO 09003KT 10SM SCT019 24/24 A2990 RMK AO2 T02380238 10290 20238
KBEA 230535Z AUTO 09003KT 10SM BKN021 BKN026 BKN036 24/24 A2990 RMK AO2 T02400240
KBEA 230515Z AUTO 09003KT 10SM BKN021 BKN036 24/24 A2990 RMK AO2 T02420242
KBEA 230455Z AUTO 09003KT 10SM SCT019 24/24 A2990 RMK AO2 T02420242
KBEA 230435Z AUTO 09003KT 10SM SCT019 25/25 A2990 RMK AO2 T02450245
KBEA 230415Z AUTO 10003KT 10SM BKN019 25/25 A2990 RMK AO2 T02480248
KBEA 230355Z AUTO 09003KT 10SM BKN021 BKN025 25/25 A2990 RMK AO2 T02490249